createdAt,value
2023-02-08T00:00:49.400Z,27.17
2023-02-08T00:03:17.050Z,26.00
2023-02-08T00:05:44.501Z,30.43
2023-02-08T00:08:11.845Z,24.40
2023-02-08T00:10:39.605Z,26.13
2023-02-08T00:13:07.153Z,21.30
2023-02-08T00:15:35.091Z,31.60
2023-02-08T00:18:02.452Z,28.47
2023-02-08T00:20:29.747Z,31.30
2023-02-08T00:22:57.442Z,25.87
2023-02-08T00:25:24.762Z,28.27
2023-02-08T00:27:52.031Z,27.17
2023-02-08T00:30:19.387Z,33.07
2023-02-08T00:32:46.912Z,22.37
2023-02-08T00:35:14.254Z,29.70
2023-02-08T00:37:41.976Z,30.17
2023-02-08T00:40:10.067Z,21.17
2023-02-08T00:42:37.349Z,33.10
2023-02-08T00:45:04.699Z,28.13
2023-02-08T00:47:32.052Z,31.67
2023-02-08T00:49:59.886Z,23.87
2023-02-08T00:52:28.208Z,21.60
2023-02-08T00:54:55.681Z,23.50
2023-02-08T00:57:23.026Z,22.93
2023-02-08T00:59:50.313Z,22.63
2023-02-08T01:02:17.768Z,26.77
2023-02-08T01:04:45.023Z,23.90
2023-02-08T01:07:12.337Z,20.23
2023-02-08T01:09:39.742Z,22.03
2023-02-08T01:12:07.204Z,25.73
2023-02-08T01:14:34.642Z,19.60
2023-02-08T01:17:01.867Z,21.60
2023-02-08T01:19:29.241Z,21.13
2023-02-08T01:21:56.507Z,26.70
2023-02-08T01:24:23.908Z,25.67
2023-02-08T01:26:51.223Z,27.80
2023-02-08T01:29:18.536Z,23.07
2023-02-08T01:31:46.353Z,21.80
2023-02-08T01:34:14.130Z,24.37
2023-02-08T01:36:41.463Z,19.07
2023-02-08T01:39:10.079Z,21.03
2023-02-08T01:41:43.919Z,18.90
2023-02-08T01:44:14.289Z,20.47
2023-02-08T01:46:51.192Z,26.50
2023-02-08T01:49:39.143Z,20.23
2023-02-08T01:52:13.149Z,21.53
2023-02-08T01:54:57.346Z,24.57
2023-02-08T01:57:26.213Z,20.97
2023-02-08T02:00:01.601Z,28.37
2023-02-08T02:02:29.113Z,24.20
2023-02-08T02:04:56.572Z,19.47
2023-02-08T02:07:28.836Z,32.03
2023-02-08T02:09:58.366Z,26.27
2023-02-08T02:12:26.110Z,26.00
2023-02-08T02:14:53.488Z,21.93
2023-02-08T02:17:21.302Z,23.53
2023-02-08T02:20:08.392Z,25.17
2023-02-08T02:23:13.933Z,17.90
2023-02-08T02:26:22.360Z,23.80
2023-02-08T02:29:20.298Z,24.53
2023-02-08T02:32:19.954Z,21.50
2023-02-08T02:35:07.676Z,21.20
2023-02-08T02:37:58.956Z,23.03
2023-02-08T02:41:13.931Z,20.83
2023-02-08T02:43:52.954Z,18.27
2023-02-08T02:46:42.003Z,23.20
2023-02-08T02:49:38.931Z,17.90
2023-02-08T02:52:12.856Z,16.40
2023-02-08T02:54:58.259Z,22.13
2023-02-08T02:57:32.526Z,19.17
2023-02-08T03:00:00.754Z,26.13
2023-02-08T03:02:28.779Z,16.80
2023-02-08T03:04:57.527Z,21.57
2023-02-08T03:07:43.393Z,17.13
2023-02-08T03:10:29.082Z,26.60
2023-02-08T03:13:23.987Z,17.80
2023-02-08T03:16:08.669Z,19.33
2023-02-08T03:18:55.914Z,33.27
2023-02-08T03:21:33.491Z,16.97
2023-02-08T03:24:23.343Z,23.73
2023-02-08T03:27:00.943Z,17.30
2023-02-08T03:30:00.140Z,23.20
2023-02-08T03:32:43.268Z,23.97
2023-02-08T03:35:36.392Z,22.07
2023-02-08T03:38:19.492Z,14.80
2023-02-08T03:40:51.762Z,19.73
2023-02-08T03:43:28.257Z,26.50
2023-02-08T03:46:12.394Z,20.87
2023-02-08T03:48:45.041Z,21.00
2023-02-08T03:51:12.854Z,27.27
2023-02-08T03:53:42.909Z,18.93
2023-02-08T03:56:23.126Z,18.17
2023-02-08T03:59:00.388Z,21.70
2023-02-08T04:01:38.485Z,18.30
2023-02-08T04:04:06.160Z,23.70
2023-02-08T04:06:33.614Z,17.27
2023-02-08T04:09:00.891Z,18.07
2023-02-08T04:11:28.276Z,18.40
2023-02-08T04:13:55.562Z,24.93
2023-02-08T04:16:22.899Z,18.33
2023-02-08T04:18:50.303Z,23.67
2023-02-08T04:21:17.589Z,21.77
2023-02-08T04:23:44.832Z,22.83
2023-02-08T04:26:12.131Z,20.63
2023-02-08T04:28:39.438Z,20.27
2023-02-08T04:31:06.908Z,17.97
2023-02-08T04:33:34.284Z,25.53
2023-02-08T04:36:01.555Z,18.20
2023-02-08T04:38:28.876Z,16.00
2023-02-08T04:40:56.284Z,19.33
2023-02-08T04:43:23.665Z,12.83
2023-02-08T04:45:51.597Z,18.00
2023-02-08T04:48:19.813Z,22.30
2023-02-08T04:50:47.200Z,18.70
2023-02-08T04:53:14.588Z,18.03
2023-02-08T04:55:41.954Z,19.40
2023-02-08T04:58:09.192Z,21.40
2023-02-08T05:00:36.711Z,17.03
2023-02-08T05:03:04.634Z,16.10
2023-02-08T05:05:32.733Z,20.97
2023-02-08T05:08:00.176Z,22.50
2023-02-08T05:10:27.505Z,19.60
2023-02-08T05:12:55.383Z,18.57
2023-02-08T05:15:22.680Z,23.67
2023-02-08T05:17:50.359Z,21.00
2023-02-08T05:20:18.032Z,17.90
2023-02-08T05:22:45.293Z,14.97
2023-02-08T05:25:12.544Z,22.00
2023-02-08T05:27:39.894Z,21.00
2023-02-08T05:30:07.600Z,16.30
2023-02-08T05:32:34.976Z,13.73
2023-02-08T05:35:02.289Z,16.13
2023-02-08T05:37:29.635Z,20.70
2023-02-08T05:39:56.971Z,23.50
2023-02-08T05:42:24.317Z,16.13
2023-02-08T05:44:52.434Z,17.50
2023-02-08T05:47:19.787Z,19.53
2023-02-08T05:49:47.181Z,13.73
2023-02-08T05:52:14.432Z,16.70
2023-02-08T05:54:41.757Z,25.87
2023-02-08T05:57:09.070Z,21.63
2023-02-08T05:59:36.355Z,19.43
2023-02-08T06:02:03.732Z,19.40
2023-02-08T06:04:31.170Z,25.90
2023-02-08T06:06:58.443Z,32.93
2023-02-08T06:09:25.757Z,46.57
2023-02-08T06:11:53.047Z,33.17
2023-02-08T06:14:20.414Z,21.10
2023-02-08T06:16:48.148Z,22.33
2023-02-08T06:19:15.643Z,15.60
2023-02-08T06:21:43.006Z,20.37
2023-02-08T06:24:11.459Z,25.20
2023-02-08T06:26:38.729Z,26.93
2023-02-08T06:29:06.176Z,15.90
2023-02-08T06:31:33.533Z,17.73
2023-02-08T06:34:00.826Z,16.30
2023-02-08T06:36:28.203Z,20.13
2023-02-08T06:38:55.501Z,21.87
2023-02-08T06:41:22.847Z,16.17
2023-02-08T06:43:50.141Z,22.00
2023-02-08T06:46:17.693Z,20.63
2023-02-08T06:48:44.968Z,18.40
2023-02-08T06:51:12.261Z,14.83
2023-02-08T06:53:39.602Z,21.40
2023-02-08T06:56:07.083Z,22.67
2023-02-08T06:58:34.588Z,14.40
2023-02-08T07:01:01.953Z,18.57
2023-02-08T07:03:29.222Z,20.30
2023-02-08T07:06:05.034Z,15.27
2023-02-08T07:08:34.146Z,20.53
2023-02-08T07:11:05.795Z,30.77
2023-02-08T07:13:33.048Z,13.63
2023-02-08T07:16:00.464Z,23.07
2023-02-08T07:18:27.816Z,16.87
2023-02-08T07:20:55.104Z,22.23
2023-02-08T07:23:22.371Z,22.00
2023-02-08T07:26:04.736Z,22.07
2023-02-08T07:28:32.284Z,25.80
2023-02-08T07:30:59.710Z,16.60
2023-02-08T07:33:27.107Z,16.07
2023-02-08T07:35:54.356Z,14.97
2023-02-08T07:38:21.658Z,24.87
2023-02-08T07:40:49.302Z,23.57
2023-02-08T07:43:16.802Z,27.43
2023-02-08T07:45:44.308Z,26.63
2023-02-08T07:48:11.546Z,18.90
2023-02-08T07:50:39.172Z,20.97
2023-02-08T07:53:06.579Z,24.30
2023-02-08T07:55:33.842Z,23.80
2023-02-08T07:58:01.180Z,22.57
2023-02-08T08:00:28.081Z,20.40
2023-02-08T08:02:55.319Z,19.67
2023-02-08T08:05:23.699Z,25.10
2023-02-08T08:07:50.975Z,21.33
2023-02-08T08:10:18.368Z,17.03
2023-02-08T08:12:45.638Z,22.10
2023-02-08T08:15:13.140Z,19.87
2023-02-08T08:17:42.232Z,24.00
2023-02-08T08:20:11.040Z,18.67
2023-02-08T08:22:38.222Z,21.00
2023-02-08T08:25:05.794Z,13.63
2023-02-08T08:27:35.176Z,15.77
2023-02-08T08:30:03.414Z,16.47
2023-02-08T08:32:30.887Z,20.87
2023-02-08T08:34:58.169Z,17.70
2023-02-08T08:37:25.476Z,13.37
2023-02-08T08:39:52.621Z,19.90
2023-02-08T08:42:20.934Z,20.43
2023-02-08T08:44:48.407Z,22.73
2023-02-08T08:47:15.811Z,19.67
2023-02-08T08:49:43.829Z,24.97
2023-02-08T08:52:12.820Z,17.30
2023-02-08T08:54:40.332Z,18.73
2023-02-08T08:57:07.736Z,17.23
2023-02-08T08:59:35.451Z,36.60
2023-02-08T09:02:02.421Z,23.37
2023-02-08T09:04:29.772Z,18.10
2023-02-08T09:06:56.698Z,18.20
2023-02-08T09:09:23.568Z,23.53
2023-02-08T09:11:51.021Z,26.60
2023-02-08T09:14:18.304Z,26.13
2023-02-08T09:16:48.135Z,17.20
2023-02-08T09:19:16.284Z,24.93
2023-02-08T09:21:43.947Z,23.70
2023-02-08T09:24:11.480Z,21.03
2023-02-08T09:26:38.925Z,22.60
2023-02-08T09:29:07.092Z,25.67
2023-02-08T09:31:37.821Z,18.83
2023-02-08T09:34:06.096Z,20.20
2023-02-08T09:36:36.385Z,26.50
2023-02-08T09:39:14.708Z,16.53
2023-02-08T09:41:53.734Z,23.80
2023-02-08T09:45:21.584Z,19.40
2023-02-08T09:47:50.989Z,22.07
2023-02-08T09:50:45.397Z,35.87
2023-02-08T09:53:22.672Z,21.83
2023-02-08T09:56:00.715Z,28.53
2023-02-08T09:58:41.946Z,23.83
2023-02-08T10:01:21.444Z,24.57
2023-02-08T10:03:53.919Z,28.30
2023-02-08T10:06:21.158Z,24.20
2023-02-08T10:08:51.211Z,25.40
2023-02-08T10:11:36.072Z,29.20
2023-02-08T10:14:18.673Z,21.33
2023-02-08T10:17:19.208Z,18.70
2023-02-08T10:20:16.179Z,18.47
2023-02-08T10:22:59.201Z,22.10
2023-02-08T10:26:18.547Z,21.07
2023-02-08T10:29:19.447Z,19.93
2023-02-08T10:32:35.296Z,18.73
2023-02-08T10:35:15.777Z,14.20
2023-02-08T10:37:44.766Z,20.73
2023-02-08T10:40:36.862Z,30.17
2023-02-08T10:43:17.959Z,18.30
2023-02-08T10:45:56.098Z,19.77
2023-02-08T10:48:52.917Z,19.30
2023-02-08T10:51:21.349Z,20.97
2023-02-08T10:53:48.958Z,21.10
2023-02-08T10:56:44.706Z,20.47
2023-02-08T10:59:35.920Z,20.07
2023-02-08T11:02:03.081Z,26.27
2023-02-08T11:04:30.038Z,24.83
2023-02-08T11:06:57.057Z,20.93
2023-02-08T11:09:32.390Z,21.40
2023-02-08T11:12:01.304Z,25.93
2023-02-08T11:14:47.127Z,23.97
2023-02-08T11:17:31.959Z,18.33
2023-02-08T11:19:59.735Z,21.30
2023-02-08T11:22:31.289Z,16.30
2023-02-08T11:25:05.648Z,17.13
2023-02-08T11:27:40.451Z,14.50
2023-02-08T11:30:13.870Z,42.60
2023-02-08T11:32:47.101Z,38.43
2023-02-08T11:35:24.703Z,23.10
2023-02-08T11:37:55.530Z,23.63
2023-02-08T11:40:30.046Z,21.00
2023-02-08T11:42:57.660Z,23.73
2023-02-08T11:45:36.274Z,20.13
2023-02-08T11:48:05.039Z,20.73
2023-02-08T11:50:38.357Z,19.60
2023-02-08T11:53:19.331Z,17.67
2023-02-08T11:55:46.247Z,15.47
2023-02-08T11:58:13.010Z,14.93
2023-02-08T12:00:41.077Z,14.60
2023-02-08T12:03:36.595Z,11.00
2023-02-08T12:07:02.591Z,8.50
2023-02-08T12:10:07.335Z,5.07
2023-02-08T12:12:38.446Z,6.90
2023-02-08T12:15:28.683Z,11.40
2023-02-08T12:18:26.730Z,10.70
2023-02-08T12:21:10.718Z,7.20
2023-02-08T12:23:47.724Z,5.83
2023-02-08T12:26:52.644Z,4.13
2023-02-08T12:29:47.313Z,10.70
2023-02-08T12:33:07.273Z,6.63
2023-02-08T12:36:11.244Z,5.87
2023-02-08T12:39:23.331Z,3.83
2023-02-08T12:42:10.421Z,4.50
2023-02-08T12:45:33.893Z,5.63
2023-02-08T12:48:58.351Z,10.80
2023-02-08T12:51:55.323Z,19.53
2023-02-08T12:54:36.391Z,5.70
2023-02-08T12:57:05.770Z,6.93
2023-02-08T12:59:40.245Z,5.20
2023-02-08T13:02:33.156Z,6.00
2023-02-08T13:05:05.270Z,5.00
2023-02-08T13:07:39.370Z,5.93
2023-02-08T13:10:31.848Z,6.17
2023-02-08T13:13:16.665Z,5.00
2023-02-08T13:15:50.614Z,5.37
2023-02-08T13:18:46.526Z,4.77
2023-02-08T13:21:20.040Z,4.87
2023-02-08T13:23:52.953Z,5.83
2023-02-08T13:26:27.686Z,4.90
2023-02-08T13:28:59.425Z,6.03
2023-02-08T13:31:41.370Z,6.67
2023-02-08T13:34:28.398Z,7.13
2023-02-08T13:36:59.912Z,6.50
2023-02-08T13:39:46.806Z,6.10
2023-02-08T13:42:39.710Z,7.17
2023-02-08T13:45:09.372Z,5.93
2023-02-08T13:47:51.990Z,6.00
2023-02-08T13:50:52.799Z,6.03
2023-02-08T13:53:39.609Z,6.77
2023-02-08T13:56:13.143Z,7.10
2023-02-08T13:58:42.738Z,6.67
2023-02-08T14:01:24.247Z,5.37
2023-02-08T14:04:12.146Z,6.43
2023-02-08T14:06:41.926Z,5.30
2023-02-08T14:09:51.308Z,6.87
2023-02-08T14:12:34.607Z,7.50
2023-02-08T14:15:15.222Z,9.47
2023-02-08T14:17:51.354Z,9.10
2023-02-08T14:20:39.803Z,7.40
2023-02-08T14:23:27.809Z,8.30
2023-02-08T14:25:57.544Z,9.43
2023-02-08T14:28:34.220Z,10.00
2023-02-08T14:31:07.249Z,9.60
2023-02-08T14:33:54.066Z,12.50
2023-02-08T14:36:34.309Z,7.43
2023-02-08T14:39:25.084Z,7.30
2023-02-08T14:42:01.040Z,9.40
2023-02-08T14:44:43.178Z,12.90
2023-02-08T14:47:25.187Z,9.77
2023-02-08T14:50:11.497Z,10.40
2023-02-08T14:52:39.290Z,13.10
2023-02-08T14:55:26.954Z,7.60
2023-02-08T14:58:00.863Z,10.23
2023-02-08T15:00:34.685Z,10.13
2023-02-08T15:03:04.462Z,11.40
2023-02-08T15:05:41.922Z,15.67
2023-02-08T15:08:09.117Z,14.50
2023-02-08T15:10:45.028Z,13.43
2023-02-08T15:13:24.289Z,12.53
2023-02-08T15:15:57.593Z,14.60
2023-02-08T15:18:31.032Z,13.07
2023-02-08T15:21:04.897Z,13.37
2023-02-08T15:23:32.016Z,9.10
2023-02-08T15:26:05.905Z,13.43
2023-02-08T15:28:37.123Z,13.90
2023-02-08T15:31:10.212Z,13.00
2023-02-08T15:33:44.922Z,18.40
2023-02-08T15:36:35.332Z,17.67
2023-02-08T15:39:25.742Z,20.20
2023-02-08T15:41:57.096Z,26.73
2023-02-08T15:44:31.494Z,20.43
2023-02-08T15:47:05.542Z,19.40
2023-02-08T15:49:37.231Z,22.87
2023-02-08T15:52:05.389Z,21.33
2023-02-08T15:54:32.429Z,26.00
2023-02-08T15:57:08.036Z,20.53
2023-02-08T15:59:40.079Z,20.27
2023-02-08T16:02:31.216Z,20.83
2023-02-08T16:05:10.775Z,24.33
2023-02-08T16:07:48.801Z,27.60
2023-02-08T16:10:24.165Z,24.93
2023-02-08T16:12:59.570Z,26.80
2023-02-08T16:15:46.940Z,35.13
2023-02-08T16:18:32.652Z,37.77
2023-02-08T16:21:02.023Z,31.77
2023-02-08T16:23:35.066Z,31.90
2023-02-08T16:26:28.487Z,31.03
2023-02-08T16:29:21.744Z,35.23
2023-02-08T16:31:57.608Z,33.93
2023-02-08T16:34:24.672Z,28.13
2023-02-08T16:36:52.681Z,32.90
2023-02-08T16:39:23.599Z,31.10
2023-02-08T16:41:58.828Z,29.43
2023-02-08T16:44:35.975Z,30.70
2023-02-08T16:47:35.438Z,34.10
2023-02-08T16:50:03.153Z,30.90
2023-02-08T16:52:30.407Z,26.63
2023-02-08T16:54:58.545Z,25.70
2023-02-08T16:57:37.826Z,21.80
2023-02-08T17:00:24.071Z,23.60
2023-02-08T17:02:52.515Z,24.63
2023-02-08T17:05:21.915Z,22.40
2023-02-08T17:07:50.145Z,19.40
2023-02-08T17:10:31.328Z,28.83
2023-02-08T17:13:18.859Z,24.40
2023-02-08T17:15:49.997Z,24.87
2023-02-08T17:18:17.072Z,34.60
2023-02-08T17:20:44.176Z,31.37
2023-02-08T17:23:11.852Z,32.83
2023-02-08T17:25:39.480Z,30.17
2023-02-08T17:28:18.233Z,26.30
2023-02-08T17:30:46.275Z,20.63
2023-02-08T17:33:20.128Z,26.03
2023-02-08T17:35:50.477Z,28.83
2023-02-08T17:38:19.296Z,20.37
2023-02-08T17:40:46.705Z,26.13
2023-02-08T17:43:14.623Z,30.20
2023-02-08T17:45:44.148Z,27.60
2023-02-08T17:48:13.528Z,25.50
2023-02-08T17:50:43.941Z,27.37
2023-02-08T17:53:11.633Z,22.57
2023-02-08T17:55:42.754Z,23.20
2023-02-08T17:58:09.966Z,24.03
2023-02-08T18:00:37.252Z,23.27
2023-02-08T18:03:04.636Z,22.47
2023-02-08T18:05:32.085Z,21.90
2023-02-08T18:07:59.664Z,18.40
2023-02-08T18:10:28.342Z,20.90
2023-02-08T18:12:55.833Z,25.30
2023-02-08T18:15:24.067Z,16.80
2023-02-08T18:17:51.030Z,20.13
2023-02-08T18:20:18.382Z,21.20
2023-02-08T18:22:45.880Z,17.03
2023-02-08T18:25:13.954Z,20.27
2023-02-08T18:27:41.568Z,19.43
2023-02-08T18:30:11.566Z,18.83
2023-02-08T18:32:39.543Z,21.70
2023-02-08T18:35:07.931Z,25.67
2023-02-08T18:37:36.594Z,24.33
2023-02-08T18:40:05.986Z,22.40
2023-02-08T18:42:35.708Z,23.67
2023-02-08T18:45:04.426Z,24.23
2023-02-08T18:47:31.347Z,20.87
2023-02-08T18:49:58.695Z,21.33
2023-02-08T18:52:26.110Z,31.03
2023-02-08T18:54:53.575Z,34.80
2023-02-08T18:57:21.187Z,28.30
2023-02-08T18:59:48.537Z,26.00
2023-02-08T19:02:22.335Z,23.60
2023-02-08T19:04:49.838Z,28.03
2023-02-08T19:07:17.163Z,32.53
2023-02-08T19:09:44.547Z,30.43
2023-02-08T19:12:15.551Z,26.60
2023-02-08T19:14:43.397Z,28.00
2023-02-08T19:17:12.431Z,27.80
2023-02-08T19:19:41.636Z,29.83
2023-02-08T19:22:08.916Z,31.37
2023-02-08T19:24:36.168Z,26.30
2023-02-08T19:27:03.522Z,37.87
2023-02-08T19:29:32.591Z,63.10
2023-02-08T19:31:59.922Z,45.53
2023-02-08T19:34:27.383Z,38.77
2023-02-08T19:36:55.233Z,31.77
2023-02-08T19:39:27.206Z,24.93
2023-02-08T19:41:55.020Z,27.43
2023-02-08T19:44:22.617Z,25.33
2023-02-08T19:46:52.996Z,27.00
2023-02-08T19:49:20.793Z,26.00
2023-02-08T19:51:48.077Z,27.97
2023-02-08T19:54:18.341Z,26.40
2023-02-08T19:56:46.279Z,22.33
2023-02-08T19:59:29.297Z,25.70
2023-02-08T20:01:56.637Z,20.87
2023-02-08T20:04:24.511Z,26.47
2023-02-08T20:06:53.298Z,20.67
2023-02-08T20:09:21.083Z,23.90
2023-02-08T20:11:56.874Z,19.73
2023-02-08T20:14:26.347Z,27.20
2023-02-08T20:16:53.976Z,30.33
2023-02-08T20:19:21.457Z,55.03
2023-02-08T20:21:48.778Z,37.53
2023-02-08T20:24:15.983Z,23.33
2023-02-08T20:26:45.621Z,22.53
2023-02-08T20:29:13.441Z,21.97
2023-02-08T20:31:43.597Z,18.63
2023-02-08T20:34:14.232Z,19.17
2023-02-08T20:36:47.630Z,19.20
2023-02-08T20:39:20.702Z,15.83
2023-02-08T20:41:48.131Z,18.50
2023-02-08T20:44:17.924Z,15.87
2023-02-08T20:46:45.200Z,16.00
2023-02-08T20:49:15.216Z,19.40
2023-02-08T20:51:43.452Z,18.90
2023-02-08T20:54:11.404Z,26.90
2023-02-08T20:56:39.019Z,24.23
2023-02-08T20:59:09.154Z,25.87
2023-02-08T21:01:37.096Z,24.40
2023-02-08T21:04:05.410Z,20.70
2023-02-08T21:06:36.409Z,24.60
2023-02-08T21:09:11.121Z,25.20
2023-02-08T21:11:38.534Z,20.30
2023-02-08T21:14:06.743Z,24.57
2023-02-08T21:16:34.485Z,22.23
2023-02-08T21:19:01.889Z,23.77
2023-02-08T21:21:29.320Z,23.50
2023-02-08T21:23:57.893Z,25.27
2023-02-08T21:26:26.301Z,18.93
2023-02-08T21:28:58.657Z,22.03
2023-02-08T21:31:26.481Z,20.67
2023-02-08T21:33:54.007Z,23.03
2023-02-08T21:36:23.785Z,18.60
2023-02-08T21:38:51.684Z,25.37
2023-02-08T21:41:26.592Z,21.87
2023-02-08T21:43:56.836Z,22.23
2023-02-08T21:46:30.444Z,19.33
2023-02-08T21:49:16.955Z,18.13
2023-02-08T21:52:03.276Z,19.47
2023-02-08T21:54:43.938Z,17.80
2023-02-08T21:57:37.807Z,18.30
2023-02-08T22:00:08.108Z,18.73
2023-02-08T22:02:35.907Z,14.77
2023-02-08T22:05:04.327Z,19.67
2023-02-08T22:07:45.738Z,20.00
2023-02-08T22:10:16.360Z,23.97
2023-02-08T22:12:43.737Z,20.43
2023-02-08T22:15:14.359Z,18.93
2023-02-08T22:17:41.867Z,19.73
2023-02-08T22:20:10.621Z,24.40
2023-02-08T22:22:38.089Z,24.57
2023-02-08T22:25:05.777Z,27.40
2023-02-08T22:27:33.058Z,29.07
2023-02-08T22:30:00.339Z,25.50
2023-02-08T22:32:27.699Z,21.63
2023-02-08T22:34:55.015Z,20.13
2023-02-08T22:37:22.376Z,26.00
2023-02-08T22:39:49.395Z,22.03
2023-02-08T22:42:16.770Z,20.23
2023-02-08T22:44:45.142Z,19.10
2023-02-08T22:47:13.238Z,18.87
2023-02-08T22:49:40.749Z,19.73
2023-02-08T22:52:08.827Z,28.50
2023-02-08T22:54:36.516Z,20.03
2023-02-08T22:57:05.937Z,23.40
2023-02-08T22:59:33.810Z,21.13
2023-02-08T23:02:01.719Z,18.07
2023-02-08T23:04:29.181Z,21.60
2023-02-08T23:06:57.077Z,19.30
2023-02-08T23:09:24.506Z,21.50
2023-02-08T23:11:51.967Z,19.30
2023-02-08T23:14:19.463Z,17.17
2023-02-08T23:16:46.940Z,21.93
2023-02-08T23:19:18.568Z,19.93
2023-02-08T23:21:46.071Z,18.00
2023-02-08T23:24:13.677Z,20.00
2023-02-08T23:26:41.092Z,17.70
2023-02-08T23:29:08.635Z,18.83
2023-02-08T23:31:36.233Z,17.30
2023-02-08T23:34:03.696Z,18.67
2023-02-08T23:36:31.071Z,19.57
2023-02-08T23:38:58.427Z,24.17
2023-02-08T23:41:25.796Z,19.03
2023-02-08T23:43:53.346Z,20.30
2023-02-08T23:46:24.992Z,21.27
2023-02-08T23:48:52.545Z,18.27
2023-02-08T23:51:22.931Z,23.83
2023-02-08T23:53:51.098Z,24.10
2023-02-08T23:56:22.143Z,25.97
2023-02-08T23:58:52.886Z,25.90
